Time;durP1;ratioP1;P1;durP2;ratioP2;P2;SDS_P1;SDS_P2;PMS_P1;PMS_P2;Temp;Humidity;BMP_temperature;BMP_pressure;BME280_temperature;BME280_humidity;BME280_pressure;Samples;Min_cycle;Max_cycle;Signal;HPM_P1;HPM_P2
2022/04/24 00:00:55;;;;;;;0.82;0.20;;;;;;;23.48;60.98;101937.53;5054013;28;20029;-64
2022/04/24 00:03:21;;;;;;;1.95;0.45;;;;;;;23.53;60.38;101931.53;5053539;28;20032;-64
2022/04/24 00:05:47;;;;;;;1.02;0.65;;;;;;;23.48;59.98;101933.94;5057896;28;20033;-60
2022/04/24 00:08:12;;;;;;;0.50;0.15;;;;;;;23.46;60.21;101930.53;5057746;28;20021;-64
2022/04/24 00:10:38;;;;;;;0.68;0.30;;;;;;;23.48;60.55;101929.31;5053971;28;20035;-64
2022/04/24 00:13:03;;;;;;;1.38;0.25;;;;;;;23.50;60.36;101919.00;5053850;28;20036;-65
2022/04/24 00:15:29;;;;;;;1.55;0.20;;;;;;;23.51;60.74;101930.84;5053486;28;20471;-64
2022/04/24 00:17:54;;;;;;;0.65;0.10;;;;;;;23.52;60.28;101929.84;5052388;28;20021;-64
2022/04/24 00:20:19;;;;;;;1.35;0.40;;;;;;;23.56;60.09;101929.28;5053452;28;20017;-64
2022/04/24 00:22:45;;;;;;;1.42;0.25;;;;;;;23.52;59.80;101930.69;5053573;28;20060;-64
2022/04/24 00:25:10;;;;;;;0.85;0.17;;;;;;;23.58;60.32;101929.13;5053314;28;20039;-64
2022/04/24 00:27:35;;;;;;;2.97;0.30;;;;;;;23.52;59.48;101927.09;5053493;28;20021;-65
2022/04/24 00:30:01;;;;;;;1.10;0.30;;;;;;;23.52;59.88;101924.34;5053501;28;20025;-64
2022/04/24 00:32:26;;;;;;;0.98;0.20;;;;;;;23.54;60.50;101927.75;5053302;28;20036;-64
2022/04/24 00:34:51;;;;;;;0.95;0.40;;;;;;;23.51;59.62;101917.97;5053387;28;20027;-64
2022/04/24 00:37:17;;;;;;;1.02;0.20;;;;;;;23.53;60.10;101921.41;5051613;28;21448;-63
2022/04/24 00:39:42;;;;;;;1.30;0.30;;;;;;;23.50;60.15;101926.38;5053440;28;20029;-64
2022/04/24 00:42:08;;;;;;;1.30;0.40;;;;;;;23.54;60.44;101922.28;5053167;28;20032;-64
2022/04/24 00:44:33;;;;;;;0.98;0.17;;;;;;;23.56;60.33;101926.53;5053005;28;20360;-64
2022/04/24 00:47:07;;;;;;;1.85;0.25;;;;;;;23.54;60.05;101923.13;5054491;28;20158;-61
2022/04/24 00:49:33;;;;;;;0.52;0.25;;;;;;;23.52;60.57;101930.69;5056983;28;20074;-64
2022/04/24 00:51:58;;;;;;;0.77;0.20;;;;;;;23.59;59.99;101925.34;5052726;28;20112;-64
2022/04/24 00:54:24;;;;;;;1.00;0.20;;;;;;;23.57;59.99;101917.31;5052867;28;20044;-64
2022/04/24 00:56:49;;;;;;;0.25;0.15;;;;;;;23.56;59.94;101929.28;5053084;28;20365;-64
2022/04/24 00:59:15;;;;;;;0.40;0.30;;;;;;;23.57;59.60;101928.28;5052680;28;20021;-64
2022/04/24 01:01:42;;;;;;;1.65;0.20;;;;;;;23.56;60.08;101925.69;5053131;28;20039;-64
2022/04/24 01:04:09;;;;;;;2.05;0.80;;;;;;;23.56;59.63;101925.69;5052831;28;20036;-64
2022/04/24 01:06:39;;;;;;;0.80;0.20;;;;;;;23.58;59.87;101929.13;5053272;28;20013;-64
2022/04/24 01:09:15;;;;;;;0.22;0.10;;;;;;;23.60;60.05;101929.81;5053664;28;20027;-64
2022/04/24 01:11:42;;;;;;;0.20;0.20;;;;;;;23.57;60.56;101927.44;5052668;28;20505;-64
2022/04/24 01:14:08;;;;;;;1.00;0.22;;;;;;;23.58;60.45;101921.75;5052788;28;20092;-65
2022/04/24 01:16:35;;;;;;;0.20;0.20;;;;;;;23.55;59.95;101923.97;5052839;28;20017;-64
2022/04/24 01:19:01;;;;;;;0.77;0.40;;;;;;;23.57;60.53;101925.53;5052706;28;20032;-64
2022/04/24 01:21:26;;;;;;;0.47;0.35;;;;;;;23.58;59.25;101930.00;5052290;28;20025;-64
2022/04/24 01:23:52;;;;;;;0.88;0.30;;;;;;;23.58;59.60;101935.47;5054229;28;20267;-63
2022/04/24 01:26:17;;;;;;;2.13;0.38;;;;;;;23.58;60.25;101935.47;5054796;28;20275;-64
2022/04/24 01:28:42;;;;;;;1.58;0.30;;;;;;;23.61;59.43;101934.25;5052346;28;20483;-64
2022/04/24 01:31:08;;;;;;;1.20;0.30;;;;;;;23.59;60.08;101931.69;5052453;28;20035;-64
2022/04/24 01:33:33;;;;;;;2.17;0.43;;;;;;;23.63;59.88;101930.28;5052253;28;20017;-65
2022/04/24 01:35:58;;;;;;;1.88;0.40;;;;;;;23.64;59.71;101933.91;5051489;28;20116;-63
2022/04/24 01:38:24;;;;;;;0.65;0.28;;;;;;;23.61;59.58;101924.13;5051983;28;20049;-64
2022/04/24 01:40:49;;;;;;;0.98;0.30;;;;;;;23.60;60.28;101933.41;5052379;28;20024;-65
2022/04/24 01:43:16;;;;;;;1.27;0.30;;;;;;;23.64;59.87;101929.25;5052019;28;20033;-64
2022/04/24 01:45:42;;;;;;;0.65;0.50;;;;;;;23.60;60.15;101927.91;5052350;28;20495;-64
2022/04/24 01:48:07;;;;;;;0.70;0.25;;;;;;;23.58;60.12;101929.13;5052318;28;20036;-64
2022/04/24 01:50:32;;;;;;;0.68;0.30;;;;;;;23.63;60.18;101921.22;5052161;28;20053;-65
2022/04/24 01:52:58;;;;;;;0.70;0.40;;;;;;;23.64;60.56;101929.25;5052304;28;20115;-64
2022/04/24 01:55:23;;;;;;;3.08;0.50;;;;;;;23.63;59.67;101932.19;5051951;28;20028;-64
2022/04/24 01:57:48;;;;;;;2.22;0.30;;;;;;;23.61;60.14;101929.63;5052542;28;20024;-63
2022/04/24 02:00:14;;;;;;;0.68;0.40;;;;;;;23.59;60.28;101931.69;5052770;28;20410;-64
2022/04/24 02:02:39;;;;;;;1.17;0.55;;;;;;;23.63;59.91;101934.94;5052117;28;20283;-64
2022/04/24 02:05:05;;;;;;;0.52;0.20;;;;;;;23.65;59.51;101933.72;5058907;28;20024;-61
2022/04/24 02:07:30;;;;;;;0.70;0.25;;;;;;;23.67;59.52;101936.28;5061342;28;20017;-64
2022/04/24 02:09:55;;;;;;;0.82;0.55;;;;;;;23.67;58.95;101939.03;5056142;28;20024;-64
2022/04/24 02:12:20;;;;;;;0.80;0.60;;;;;;;23.63;59.38;101933.03;5055856;28;20025;-64
2022/04/24 02:14:46;;;;;;;0.40;0.25;;;;;;;23.63;60.11;101938.53;5054803;28;20025;-64
2022/04/24 02:17:11;;;;;;;1.05;0.40;;;;;;;23.67;59.70;101936.28;5055830;28;20017;-64
2022/04/24 02:19:37;;;;;;;0.95;0.40;;;;;;;23.62;59.69;101938.72;5055870;28;20025;-64
2022/04/24 02:22:02;;;;;;;1.42;0.73;;;;;;;23.66;59.63;101937.31;5055946;28;20025;-64
2022/04/24 02:24:28;;;;;;;2.17;0.20;;;;;;;23.62;60.26;101947.81;5055969;28;20033;-64
2022/04/24 02:26:54;;;;;;;2.55;0.40;;;;;;;23.59;59.62;101942.69;5055821;28;20017;-64
2022/04/24 02:29:19;;;;;;;0.77;0.30;;;;;;;23.63;59.65;101938.53;5056008;28;20025;-64
2022/04/24 02:31:45;;;;;;;1.77;0.20;;;;;;;23.66;59.35;101943.66;5055770;28;20079;-64
2022/04/24 02:34:10;;;;;;;0.50;0.20;;;;;;;23.65;60.08;101946.59;5054328;28;20380;-64
2022/04/24 02:36:35;;;;;;;1.95;0.52;;;;;;;23.63;59.64;101943.16;5055518;28;20028;-64
2022/04/24 02:39:01;;;;;;;2.15;0.25;;;;;;;23.66;59.80;101943.66;5055423;28;20102;-64
2022/04/24 02:41:27;;;;;;;0.57;0.28;;;;;;;23.63;59.73;101949.50;5055246;28;20033;-64
2022/04/24 02:43:52;;;;;;;1.55;0.57;;;;;;;23.62;60.42;101955.19;5055404;28;20352;-64
2022/04/24 02:46:17;;;;;;;0.77;0.55;;;;;;;23.60;59.09;101954.50;5059046;28;20073;-62
2022/04/24 02:48:43;;;;;;;0.50;0.10;;;;;;;23.62;59.29;101950.56;5058810;28;20396;-63
2022/04/24 02:51:08;;;;;;;0.32;0.25;;;;;;;23.68;60.16;101949.84;5054390;28;20031;-63
2022/04/24 02:53:33;;;;;;;0.95;0.20;;;;;;;23.66;60.46;101953.78;5054353;28;20448;-64
2022/04/24 02:55:58;;;;;;;1.13;0.35;;;;;;;23.69;59.32;101951.56;5055295;28;20029;-64
2022/04/24 02:58:25;;;;;;;0.88;0.30;;;;;;;23.67;59.89;101956.34;5054984;28;20040;-64
2022/04/24 03:00:51;;;;;;;1.02;0.65;;;;;;;23.64;59.36;101956.72;5055209;28;20118;-64
2022/04/24 03:03:18;;;;;;;1.40;0.50;;;;;;;23.65;59.06;101952.94;5054891;28;20502;-64
2022/04/24 03:05:48;;;;;;;1.00;0.30;;;;;;;23.63;59.28;101941.28;5055361;28;20074;-64
2022/04/24 03:08:14;;;;;;;1.15;0.28;;;;;;;23.63;59.42;101938.53;5054932;28;20115;-64
2022/04/24 03:10:40;;;;;;;1.65;0.30;;;;;;;23.68;58.83;101947.09;5054933;28;20025;-64
2022/04/24 03:13:05;;;;;;;1.38;0.40;;;;;;;23.65;59.70;101944.69;5054975;28;20031;-64
2022/04/24 03:15:30;;;;;;;1.65;0.20;;;;;;;23.69;59.61;101940.56;5054485;28;20021;-65
2022/04/24 03:17:56;;;;;;;0.70;0.15;;;;;;;23.67;59.11;101945.38;5054930;28;20032;-64
2022/04/24 03:20:22;;;;;;;0.77;0.40;;;;;;;23.67;59.30;101942.63;5054649;28;20414;-64
2022/04/24 03:22:48;;;;;;;3.50;0.40;;;;;;;23.67;59.77;101933.53;5055785;28;20048;-64
2022/04/24 03:25:14;;;;;;;0.30;0.20;;;;;;;23.68;59.83;101936.13;5054563;28;20376;-64
2022/04/24 03:27:39;;;;;;;1.00;0.57;;;;;;;23.64;59.70;101937.50;5057500;28;20020;-63
2022/04/24 03:30:06;;;;;;;0.93;0.32;;;;;;;23.66;59.83;101945.53;5055382;28;20029;-64
2022/04/24 03:32:32;;;;;;;0.60;0.30;;;;;;;23.66;59.77;101938.16;5054463;28;20032;-64
2022/04/24 03:34:57;;;;;;;1.98;0.50;;;;;;;23.69;59.75;101948.81;5054515;28;20024;-64
2022/04/24 03:37:23;;;;;;;0.73;0.20;;;;;;;23.67;59.83;101945.38;5054099;28;20160;-64
2022/04/24 03:39:48;;;;;;;0.60;0.20;;;;;;;23.72;59.65;101952.22;5054536;28;20024;-64
2022/04/24 03:42:13;;;;;;;0.82;0.22;;;;;;;23.72;59.46;101946.75;5054337;28;20431;-64
2022/04/24 03:44:39;;;;;;;1.00;0.30;;;;;;;23.68;59.95;101944.34;5054133;28;20032;-65
2022/04/24 03:47:06;;;;;;;1.73;0.30;;;;;;;23.72;59.82;101941.25;5054365;28;20025;-64
2022/04/24 03:49:31;;;;;;;0.73;0.28;;;;;;;23.66;59.39;101938.16;5054147;28;20025;-64
2022/04/24 03:51:56;;;;;;;1.58;0.30;;;;;;;23.64;60.26;101944.88;5051709;28;20031;-64
2022/04/24 03:54:22;;;;;;;1.10;0.30;;;;;;;23.63;58.97;101937.69;5052914;28;20051;-64
2022/04/24 03:56:47;;;;;;;0.28;0.20;;;;;;;23.64;59.52;101940.25;5054013;28;20112;-64
2022/04/24 03:59:12;;;;;;;1.70;0.50;;;;;;;23.62;59.61;101938.72;5054293;28;20049;-64
2022/04/24 04:01:37;;;;;;;0.98;0.55;;;;;;;23.70;59.00;101945.03;5054149;28;20078;-64
2022/04/24 04:04:03;;;;;;;1.40;0.50;;;;;;;23.79;59.07;101942.22;5054032;28;20075;-64
2022/04/24 04:06:28;;;;;;;1.35;0.30;;;;;;;23.87;59.03;101940.28;5054878;28;20025;-61
2022/04/24 04:08:54;;;;;;;1.27;0.43;;;;;;;23.95;58.48;101948.47;5058719;28;20451;-63
2022/04/24 04:11:19;;;;;;;0.88;0.30;;;;;;;23.98;58.42;101941.75;5053739;28;20294;-64
2022/04/24 04:13:44;;;;;;;2.08;0.50;;;;;;;24.04;57.71;101946.53;5053844;28;20025;-63
2022/04/24 04:16:09;;;;;;;0.60;0.20;;;;;;;24.05;57.42;101944.63;5053991;28;20531;-64
2022/04/24 04:18:35;;;;;;;2.83;0.60;;;;;;;24.13;57.85;101947.31;5053603;28;20052;-63
2022/04/24 04:21:00;;;;;;;1.20;0.55;;;;;;;24.13;59.33;101950.91;5053630;28;20044;-63
2022/04/24 04:23:25;;;;;;;0.68;0.20;;;;;;;24.16;58.31;101950.53;5053342;28;20058;-63
2022/04/24 04:25:51;;;;;;;0.43;0.10;;;;;;;24.21;58.83;101953.59;5051735;28;20025;-63
2022/04/24 04:28:16;;;;;;;1.08;0.10;;;;;;;24.23;58.56;101945.19;5053414;28;20146;-63
2022/04/24 04:30:41;;;;;;;2.10;0.30;;;;;;;24.23;58.35;101953.41;5053426;28;20016;-63
2022/04/24 04:33:07;;;;;;;0.82;0.30;;;;;;;24.26;59.14;101953.91;5053363;28;20017;-63
2022/04/24 04:35:32;;;;;;;1.00;0.25;;;;;;;24.24;59.26;101955.97;5053313;28;20071;-63
2022/04/24 04:37:58;;;;;;;0.70;0.20;;;;;;;24.26;57.82;101956.66;5053143;28;20131;-63
2022/04/24 04:40:23;;;;;;;0.10;0.10;;;;;;;24.27;58.16;101958.34;5053831;28;20028;-63
2022/04/24 04:42:49;;;;;;;0.57;0.10;;;;;;;24.29;58.03;101960.94;5055512;28;20090;-64
2022/04/24 04:45:15;;;;;;;1.27;0.30;;;;;;;24.33;59.16;101962.28;5053057;28;20514;-63
2022/04/24 04:47:40;;;;;;;0.68;0.20;;;;;;;24.33;58.59;101966.94;5053527;28;20025;-63
2022/04/24 04:50:07;;;;;;;2.28;0.17;;;;;;;24.32;58.96;101970.72;5053202;28;20025;-64
2022/04/24 04:52:33;;;;;;;0.13;0.10;;;;;;;24.33;59.05;101967.78;5052967;28;20538;-63
2022/04/24 04:54:58;;;;;;;0.50;0.10;;;;;;;24.35;58.95;101975.84;5050503;28;20511;-63
2022/04/24 04:57:24;;;;;;;1.38;0.20;;;;;;;24.40;58.27;101967.91;5051598;28;20032;-63
2022/04/24 04:59:49;;;;;;;0.82;0.32;;;;;;;24.41;58.66;101970.47;5052871;28;20017;-63
2022/04/24 05:02:14;;;;;;;0.70;0.20;;;;;;;24.42;58.87;101963.94;5052738;28;20522;-63
2022/04/24 05:04:43;;;;;;;0.98;0.43;;;;;;;24.40;59.31;101959.66;5052665;28;20021;-63
2022/04/24 05:07:08;;;;;;;0.57;0.30;;;;;;;24.41;58.69;101961.38;5052748;28;20103;-63
2022/04/24 05:09:33;;;;;;;0.50;0.20;;;;;;;24.43;58.01;101959.28;5052626;28;20120;-64
2022/04/24 05:11:59;;;;;;;1.60;0.32;;;;;;;24.43;58.73;101956.53;5052545;28;20021;-63
2022/04/24 05:14:24;;;;;;;0.77;0.38;;;;;;;24.47;58.97;101944.13;5052453;28;20028;-63
2022/04/24 05:16:49;;;;;;;1.45;0.22;;;;;;;24.47;59.03;101952.38;5052471;28;20059;-63
2022/04/24 05:19:14;;;;;;;1.55;0.28;;;;;;;24.46;59.62;101950.69;5052446;28;20456;-64
2022/04/24 05:21:40;;;;;;;0.85;0.30;;;;;;;24.48;60.06;101954.09;5055627;28;20054;-61
2022/04/24 05:24:05;;;;;;;0.57;0.10;;;;;;;24.50;60.19;101957.50;5053689;28;20392;-63
2022/04/24 05:26:31;;;;;;;0.43;0.20;;;;;;;24.52;59.75;101958.16;5052299;28;20071;-63
2022/04/24 05:28:56;;;;;;;1.50;0.43;;;;;;;24.50;59.60;101955.59;5052369;28;20024;-63
2022/04/24 05:31:22;;;;;;;1.50;0.30;;;;;;;24.54;60.27;101961.63;5052264;28;20075;-63
2022/04/24 05:33:47;;;;;;;0.85;0.22;;;;;;;24.51;60.81;101949.06;5052349;28;20471;-63
2022/04/24 05:36:12;;;;;;;1.75;0.25;;;;;;;24.51;60.58;101959.22;5052359;28;20028;-63
2022/04/24 05:38:38;;;;;;;1.00;0.28;;;;;;;24.54;60.07;101959.72;5052075;28;20052;-63
2022/04/24 05:41:03;;;;;;;1.00;0.20;;;;;;;24.57;60.67;101969.47;5052648;28;20111;-63
2022/04/24 05:43:29;;;;;;;0.68;0.20;;;;;;;24.57;59.79;101970.34;5052291;28;20033;-63
2022/04/24 05:45:54;;;;;;;0.30;0.20;;;;;;;24.58;60.45;101965.69;5051145;28;20021;-63
2022/04/24 05:48:19;;;;;;;0.98;0.20;;;;;;;24.61;61.21;101976.31;5050845;28;20029;-64
2022/04/24 05:50:45;;;;;;;2.83;0.40;;;;;;;24.62;60.42;101961.53;5052274;28;20031;-63
2022/04/24 05:53:10;;;;;;;0.43;0.20;;;;;;;24.59;60.76;101967.41;5050964;28;20471;-64
2022/04/24 05:55:36;;;;;;;0.52;0.20;;;;;;;24.63;59.99;101974.22;5052414;28;20021;-63
2022/04/24 05:58:01;;;;;;;3.08;0.57;;;;;;;24.62;61.02;101972.53;5052223;28;20151;-64
2022/04/24 06:00:27;;;;;;;0.85;0.30;;;;;;;24.62;61.23;101972.53;5052029;28;20017;-63
2022/04/24 06:02:53;;;;;;;1.08;0.20;;;;;;;24.64;61.26;101970.44;5053016;28;20072;-64
2022/04/24 06:05:18;;;;;;;0.77;0.50;;;;;;;24.64;60.70;101962.19;5051904;28;20238;-64
2022/04/24 06:07:43;;;;;;;0.95;0.20;;;;;;;24.65;60.68;101961.16;5052276;28;20381;-64
2022/04/24 06:10:10;;;;;;;0.17;0.10;;;;;;;24.63;60.79;101965.13;5052083;28;20119;-64
2022/04/24 06:12:55;;;;;;;1.52;0.50;;;;;;;24.68;61.81;101963.50;5051963;28;20029;-63
2022/04/24 06:15:26;;;;;;;1.35;0.20;;;;;;;24.67;61.06;101966.44;5051774;28;20033;-64
2022/04/24 06:17:53;;;;;;;0.73;0.20;;;;;;;24.67;61.03;101959.06;5052069;28;20068;-64
2022/04/24 06:20:21;;;;;;;0.45;0.30;;;;;;;24.69;60.63;101961.63;5051869;28;20037;-64
2022/04/24 06:22:50;;;;;;;0.38;0.17;;;;;;;24.67;61.31;101964.56;5051920;28;20029;-63
2022/04/24 06:25:18;;;;;;;0.38;0.25;;;;;;;24.72;61.22;101967.63;5051755;28;20037;-64
2022/04/24 06:27:45;;;;;;;0.40;0.10;;;;;;;24.72;60.92;101962.13;5051898;28;20100;-64
2022/04/24 06:30:11;;;;;;;0.75;0.20;;;;;;;24.66;60.63;101962.84;5051864;28;20028;-63
2022/04/24 06:32:39;;;;;;;1.33;0.30;;;;;;;24.67;61.39;101960.94;5051751;28;20048;-63
2022/04/24 06:35:05;;;;;;;0.75;0.30;;;;;;;24.68;61.45;101966.25;5051880;28;20108;-64
2022/04/24 06:37:30;;;;;;;0.40;0.10;;;;;;;24.73;61.26;101958.34;5051631;28;20049;-63
2022/04/24 06:39:55;;;;;;;1.20;0.50;;;;;;;24.72;60.73;101962.13;5053916;28;20029;-60
2022/04/24 06:42:22;;;;;;;0.65;0.35;;;;;;;24.69;61.06;101951.50;5052762;28;20488;-63
2022/04/24 06:44:47;;;;;;;0.30;0.10;;;;;;;24.70;61.14;101944.97;5051795;28;20181;-64
2022/04/24 06:47:13;;;;;;;0.10;0.10;;;;;;;24.70;61.48;101955.97;5051500;28;20544;-64
2022/04/24 06:49:38;;;;;;;1.63;0.13;;;;;;;24.72;61.50;101950.28;5052864;28;20033;-63
2022/04/24 06:52:04;;;;;;;0.45;0.20;;;;;;;24.76;60.95;101949.69;5055498;28;20372;-64
2022/04/24 06:54:29;;;;;;;0.98;0.22;;;;;;;24.73;61.06;101947.34;5055158;28;20040;-64
2022/04/24 06:56:54;;;;;;;0.40;0.20;;;;;;;24.75;60.84;101945.25;5055316;28;20024;-64
2022/04/24 06:59:19;;;;;;;1.90;0.73;;;;;;;24.78;61.75;101946.75;5054896;28;20062;-64
2022/04/24 07:01:45;;;;;;;0.82;0.08;;;;;;;24.76;61.32;101946.94;5055569;28;20099;-63
2022/04/24 07:04:10;;;;;;;0.25;0.10;;;;;;;24.76;61.20;101938.69;5055566;28;20435;-64
2022/04/24 07:06:35;;;;;;;0.52;0.10;;;;;;;24.81;61.07;101946.38;5055006;28;20044;-64
2022/04/24 07:09:01;;;;;;;0.35;0.20;;;;;;;24.77;60.81;101936.81;5054126;28;20029;-64
2022/04/24 07:11:26;;;;;;;0.88;0.38;;;;;;;24.81;61.58;101947.22;5054732;28;20025;-64
2022/04/24 07:13:51;;;;;;;1.58;0.30;;;;;;;24.78;61.07;101939.38;5054981;28;20021;-64
2022/04/24 07:16:16;;;;;;;0.60;0.20;;;;;;;24.78;61.05;101944.00;5056649;28;20021;-64
2022/04/24 07:18:42;;;;;;;0.70;0.20;;;;;;;24.80;61.25;101941.91;5055121;28;20419;-64
2022/04/24 07:21:07;;;;;;;0.47;0.20;;;;;;;24.79;60.91;101952.06;5054707;28;20032;-64
2022/04/24 07:23:32;;;;;;;0.95;0.30;;;;;;;24.82;61.53;101951.69;5054548;28;20025;-64
2022/04/24 07:25:58;;;;;;;0.77;0.20;;;;;;;24.82;60.81;101946.19;5054775;28;20467;-63
2022/04/24 07:28:24;;;;;;;0.20;0.20;;;;;;;24.78;61.27;101949.50;5054509;28;20376;-64
2022/04/24 07:30:50;;;;;;;0.20;0.20;;;;;;;24.80;61.48;101937.28;5054662;28;20033;-64
2022/04/24 07:33:15;;;;;;;0.73;0.40;;;;;;;24.82;60.61;101943.44;5054571;28;20021;-64
2022/04/24 07:35:41;;;;;;;1.05;0.20;;;;;;;24.83;61.10;101931.41;5054501;28;20075;-64
2022/04/24 07:38:07;;;;;;;0.65;0.10;;;;;;;24.80;60.41;101925.41;5054413;28;20527;-63
2022/04/24 07:40:39;;;;;;;0.47;0.15;;;;;;;24.79;60.84;101929.22;5054301;28;20028;-64
2022/04/24 07:43:09;;;;;;;1.55;0.20;;;;;;;24.80;61.27;101930.91;5054358;28;20021;-64
2022/04/24 07:45:37;;;;;;;0.88;0.30;;;;;;;24.80;60.98;101926.28;5054325;28;20488;-64
2022/04/24 07:48:04;;;;;;;1.65;0.30;;;;;;;24.83;61.39;101928.63;5054374;28;20029;-64
2022/04/24 07:50:33;;;;;;;0.70;0.22;;;;;;;24.81;61.35;101925.22;5054067;28;20067;-64
2022/04/24 07:52:58;;;;;;;0.82;0.30;;;;;;;24.84;61.65;101927.59;5054332;28;20066;-64
2022/04/24 07:55:25;;;;;;;1.27;0.25;;;;;;;24.82;61.64;101923.34;5053948;28;20025;-63
2022/04/24 07:57:55;;;;;;;1.25;0.25;;;;;;;24.79;60.93;101930.06;5059216;28;20032;-61
2022/04/24 08:00:26;;;;;;;2.05;0.25;;;;;;;24.82;61.35;101918.69;5053989;28;20044;-63
2022/04/24 08:02:57;;;;;;;0.63;0.45;;;;;;;24.85;60.85;101923.81;5052196;28;20025;-64
2022/04/24 08:05:33;;;;;;;1.02;0.22;;;;;;;24.84;61.29;101922.09;5053680;28;20020;-63
2022/04/24 08:08:00;;;;;;;1.52;0.20;;;;;;;24.88;60.87;101912.44;5052701;28;20124;-63
2022/04/24 08:10:28;;;;;;;0.65;0.20;;;;;;;24.86;60.82;101917.28;5054041;28;20033;-63
2022/04/24 08:12:53;;;;;;;1.65;0.28;;;;;;;24.84;61.40;101911.09;5053881;28;20017;-63
2022/04/24 08:15:19;;;;;;;0.88;0.20;;;;;;;24.90;61.26;101913.09;5053642;28;20491;-64
2022/04/24 08:17:44;;;;;;;0.98;0.20;;;;;;;24.89;60.30;101914.16;5052424;28;20037;-64
2022/04/24 08:20:12;;;;;;;0.57;0.10;;;;;;;24.90;60.84;101907.59;5053939;28;20029;-64
2022/04/24 08:22:42;;;;;;;0.47;0.10;;;;;;;24.91;60.78;101900.22;5053452;28;20061;-63
2022/04/24 08:25:09;;;;;;;2.72;0.45;;;;;;;24.89;60.75;101907.81;5053756;28;20451;-64
2022/04/24 08:27:35;;;;;;;0.73;0.20;;;;;;;24.89;60.74;101899.56;5053442;28;20032;-63
2022/04/24 08:30:01;;;;;;;0.70;0.20;;;;;;;24.88;61.04;101901.44;5053518;28;20403;-64
2022/04/24 08:32:27;;;;;;;0.88;0.25;;;;;;;24.87;61.14;101898.88;5055896;28;20060;-64
2022/04/24 08:34:52;;;;;;;1.00;0.10;;;;;;;24.90;61.13;101904.84;5053653;28;20037;-64
2022/04/24 08:37:17;;;;;;;0.55;0.30;;;;;;;24.88;61.27;101895.94;5052942;28;20032;-64
2022/04/24 08:39:43;;;;;;;0.20;0.10;;;;;;;24.88;60.71;101911.59;5053889;28;20020;-64
2022/04/24 08:42:09;;;;;;;0.65;0.10;;;;;;;24.88;61.42;101893.19;5053466;28;20401;-64
2022/04/24 08:44:36;;;;;;;0.57;0.20;;;;;;;24.90;61.08;101893.84;5053336;28;20021;-64
2022/04/24 08:47:01;;;;;;;0.95;0.30;;;;;;;24.89;60.77;101889.41;5053196;28;20379;-63
2022/04/24 08:49:31;;;;;;;0.63;0.30;;;;;;;24.95;61.06;101896.03;5052824;28;20040;-64
2022/04/24 08:51:59;;;;;;;1.00;0.20;;;;;;;24.93;60.77;101898.13;5053084;28;20074;-64
2022/04/24 08:54:27;;;;;;;0.90;0.28;;;;;;;24.90;61.35;101895.75;5053118;28;20024;-63
2022/04/24 08:56:56;;;;;;;0.20;0.20;;;;;;;24.93;60.70;101898.13;5053235;28;20023;-64
2022/04/24 08:59:22;;;;;;;0.70;0.20;;;;;;;24.91;61.22;101894.72;5051278;28;20029;-64
2022/04/24 09:01:47;;;;;;;0.95;0.30;;;;;;;24.94;60.50;101904.47;5052935;28;20025;-64
2022/04/24 09:04:13;;;;;;;0.52;0.20;;;;;;;24.92;60.60;101890.06;5052756;28;20399;-64
2022/04/24 09:06:40;;;;;;;1.10;0.25;;;;;;;24.89;61.04;101897.66;5052725;28;20025;-63
2022/04/24 09:09:06;;;;;;;0.88;0.40;;;;;;;24.92;61.50;101895.56;5052744;28;20099;-63
2022/04/24 09:11:33;;;;;;;0.93;0.20;;;;;;;24.89;61.10;101905.91;5052649;28;20103;-63
2022/04/24 09:14:18;;;;;;;0.65;0.30;;;;;;;24.94;60.71;101893.47;5052530;28;20021;-64
2022/04/24 09:16:51;;;;;;;0.47;0.10;;;;;;;24.97;60.63;101893.09;5054248;28;20464;-61
2022/04/24 09:19:19;;;;;;;0.77;0.45;;;;;;;24.94;60.41;101902.56;5055837;28;20033;-64
2022/04/24 09:21:45;;;;;;;1.13;0.40;;;;;;;25.00;60.20;101892.72;5052617;28;20017;-64
2022/04/24 09:24:10;;;;;;;0.95;0.40;;;;;;;24.96;60.82;101896.88;5052547;28;20035;-63
2022/04/24 09:26:35;;;;;;;1.33;0.32;;;;;;;24.97;60.40;101893.94;5052423;28;20375;-64
2022/04/24 09:29:01;;;;;;;0.95;0.30;;;;;;;24.94;61.30;101887.97;5052542;28;20020;-64
2022/04/24 09:31:29;;;;;;;0.40;0.30;;;;;;;24.97;61.01;101890.34;5052192;28;20028;-63
2022/04/24 09:33:55;;;;;;;0.45;0.17;;;;;;;24.94;60.56;101887.97;5052426;28;20017;-64
2022/04/24 09:36:24;;;;;;;0.93;0.20;;;;;;;24.96;60.90;101889.47;5052258;28;20063;-64
2022/04/24 09:38:50;;;;;;;2.03;0.50;;;;;;;24.98;60.28;101879.13;5052258;28;20076;-64
2022/04/24 09:41:23;;;;;;;1.55;0.35;;;;;;;24.95;60.74;101881.41;5052148;28;20057;-64
2022/04/24 09:43:49;;;;;;;0.63;0.15;;;;;;;25.02;59.95;101874.13;5052351;28;20032;-64
2022/04/24 09:46:28;;;;;;;1.00;0.30;;;;;;;25.00;60.67;101871.56;5052305;28;20037;-64
2022/04/24 09:48:59;;;;;;;1.00;0.15;;;;;;;24.96;61.45;101881.22;5052297;28;20032;-64
2022/04/24 09:51:24;;;;;;;0.45;0.20;;;;;;;24.98;60.72;101895.63;5051961;28;20046;-64
2022/04/24 09:53:50;;;;;;;0.75;0.28;;;;;;;25.02;61.05;101890.63;5052361;28;20462;-64
2022/04/24 09:56:17;;;;;;;0.28;0.15;;;;;;;25.01;60.90;101888.94;5051329;28;20498;-63
2022/04/24 09:58:43;;;;;;;0.10;0.08;;;;;;;24.99;60.41;101888.25;5054231;28;20482;-64
2022/04/24 10:01:09;;;;;;;1.08;0.20;;;;;;;25.00;60.71;101871.56;5051987;28;20104;-63
2022/04/24 10:03:37;;;;;;;0.28;0.10;;;;;;;24.98;61.14;101878.28;5052031;28;20152;-64
2022/04/24 10:06:04;;;;;;;1.45;0.40;;;;;;;25.00;60.12;101862.47;5050907;28;20025;-64
2022/04/24 10:08:33;;;;;;;0.98;0.30;;;;;;;25.02;60.41;101879.63;5051956;28;20387;-64
2022/04/24 10:11:02;;;;;;;0.95;0.17;;;;;;;25.00;60.38;101865.22;5052158;28;20032;-63
2022/04/24 10:13:29;;;;;;;0.57;0.40;;;;;;;24.98;61.07;101850.78;5051835;28;20104;-64
2022/04/24 10:16:09;;;;;;;0.28;0.15;;;;;;;24.97;60.45;101860.06;5052701;28;20028;-64
2022/04/24 10:18:47;;;;;;;1.08;0.20;;;;;;;24.97;60.47;101854.56;5051837;28;20147;-64
2022/04/24 10:21:50;;;;;;;0.85;0.20;;;;;;;25.01;60.64;101850.41;5050471;28;20021;-65
2022/04/24 10:24:15;;;;;;;1.00;0.25;;;;;;;24.99;60.47;101846.97;5051154;28;20032;-64
2022/04/24 10:26:51;;;;;;;0.70;0.20;;;;;;;25.01;60.38;101844.91;5054511;28;20029;-64
2022/04/24 10:29:17;;;;;;;1.42;0.35;;;;;;;25.01;61.08;101847.66;5055628;28;20510;-64
2022/04/24 10:31:44;;;;;;;0.88;0.30;;;;;;;25.02;60.09;101846.63;5055751;28;20021;-64
2022/04/24 10:34:11;;;;;;;1.15;0.20;;;;;;;25.00;60.42;101837.72;5054478;28;20482;-63
2022/04/24 10:36:37;;;;;;;2.00;0.52;;;;;;;24.99;60.27;101846.97;5058718;28;20024;-64
2022/04/24 10:39:16;;;;;;;0.70;0.20;;;;;;;25.03;60.58;101842.84;5056018;28;20066;-64
2022/04/24 10:41:53;;;;;;;0.10;0.10;;;;;;;25.03;59.95;101842.84;5055516;28;20040;-63
2022/04/24 10:44:18;;;;;;;1.40;0.40;;;;;;;25.07;59.92;101849.66;5055370;28;20384;-64
2022/04/24 10:46:47;;;;;;;1.27;0.20;;;;;;;25.05;61.12;101851.75;5055497;28;20028;-63
2022/04/24 10:49:18;;;;;;;0.65;0.25;;;;;;;25.03;60.67;101848.34;5055265;28;20071;-64
2022/04/24 10:51:45;;;;;;;0.50;0.43;;;;;;;25.02;60.46;101835.63;5055416;28;20032;-63
2022/04/24 10:54:13;;;;;;;0.55;0.20;;;;;;;25.03;59.93;101843.72;5055242;28;20364;-64
2022/04/24 10:56:41;;;;;;;0.50;0.10;;;;;;;25.02;61.55;101838.38;5055224;28;20025;-64
2022/04/24 10:59:22;;;;;;;0.90;0.25;;;;;;;25.03;59.85;101842.84;5055040;28;20029;-65
2022/04/24 11:01:52;;;;;;;0.98;0.10;;;;;;;25.02;60.13;101830.13;5055244;28;20399;-64
2022/04/24 11:04:19;;;;;;;0.75;0.30;;;;;;;25.03;61.65;101832.69;5055034;28;20060;-64
2022/04/24 11:07:02;;;;;;;1.50;0.30;;;;;;;25.02;60.10;101835.63;5055088;28;20021;-63
2022/04/24 11:09:33;;;;;;;1.00;0.20;;;;;;;25.03;60.32;101838.19;5055495;28;20051;-63
2022/04/24 11:12:04;;;;;;;0.75;0.30;;;;;;;25.07;60.12;101841.41;5055955;28;20384;-61
2022/04/24 11:14:30;;;;;;;0.28;0.10;;;;;;;25.02;59.97;101835.63;5058623;28;20029;-64
2022/04/24 11:17:00;;;;;;;0.80;0.57;;;;;;;25.02;60.21;101824.59;5054973;28;20028;-63
2022/04/24 11:19:34;;;;;;;1.63;0.30;;;;;;;25.07;60.97;101833.16;5054558;28;20056;-63
2022/04/24 11:22:10;;;;;;;0.47;0.28;;;;;;;25.07;59.96;101822.16;5055000;28;20033;-63